Time;durP1;ratioP1;P1;durP2;ratioP2;P2;SDS_P1;SDS_P2;PMS_P1;PMS_P2;Temp;Humidity;BMP_temperature;BMP_pressure;BME280_temperature;BME280_humidity;BME280_pressure;Samples;Min_cycle;Max_cycle;Signal;HPM_P1;HPM_P2
2021/08/29 00:01:24;;;;;;;5.78;2.95;;;23.90;62.90;;;;;;4951266;28;87509;-16
2021/08/29 00:03:50;;;;;;;4.75;3.30;;;23.90;62.90;;;;;;4961749;28;88408;-16
2021/08/29 00:06:15;;;;;;;5.22;3.22;;;23.90;62.90;;;;;;4970112;28;88120;-16
2021/08/29 00:08:41;;;;;;;5.47;3.17;;;23.90;62.90;;;;;;4970278;28;87904;-17
2021/08/29 00:11:07;;;;;;;3.97;3.03;;;23.90;62.90;;;;;;4969803;28;88385;-15
2021/08/29 00:13:32;;;;;;;4.50;3.05;;;23.90;62.90;;;;;;4968321;28;90515;-15
2021/08/29 00:15:59;;;;;;;6.00;3.20;;;23.90;62.90;;;;;;4968208;28;90111;-16
2021/08/29 00:18:24;;;;;;;4.72;3.03;;;23.90;62.90;;;;;;4970139;28;88127;-16
2021/08/29 00:20:50;;;;;;;4.07;2.70;;;23.90;62.90;;;;;;4969910;28;87643;-16
2021/08/29 00:23:16;;;;;;;3.47;2.80;;;23.80;62.80;;;;;;4969152;28;88524;-15
2021/08/29 00:25:41;;;;;;;6.18;2.92;;;23.90;63.00;;;;;;4970499;28;87970;-16
2021/08/29 00:28:07;;;;;;;4.00;2.75;;;23.90;63.00;;;;;;4952924;28;89144;-20
2021/08/29 00:30:33;;;;;;;3.67;2.90;;;23.80;62.90;;;;;;4949766;28;87028;-16
2021/08/29 00:32:58;;;;;;;4.85;3.22;;;23.90;62.90;;;;;;4947881;28;88200;-16
2021/08/29 00:35:24;;;;;;;6.07;3.13;;;23.90;63.00;;;;;;4948785;28;88876;-16
2021/08/29 00:37:49;;;;;;;3.30;2.78;;;23.80;62.90;;;;;;4949177;28;88892;-15
2021/08/29 00:40:16;;;;;;;4.20;3.20;;;23.80;62.90;;;;;;4950185;28;87726;-17
2021/08/29 00:42:45;;;;;;;4.85;3.00;;;23.80;62.90;;;;;;4971101;23;88098;-85
2021/08/29 00:45:11;;;;;;;3.40;2.55;;;23.80;62.90;;;;;;4965752;28;90654;-85
2021/08/29 00:47:37;;;;;;;5.13;2.88;;;23.80;62.90;;;;;;4968212;28;89477;-85
2021/08/29 00:50:04;;;;;;;4.00;2.72;;;23.80;62.90;;;;;;4966155;28;87744;-84
2021/08/29 00:52:30;;;;;;;4.68;3.05;;;23.80;62.90;;;;;;4965824;28;89283;-84
2021/08/29 00:54:56;;;;;;;4.47;2.80;;;23.80;63.00;;;;;;4965608;28;90492;-85
2021/08/29 00:57:21;;;;;;;4.15;3.40;;;23.80;62.90;;;;;;4967023;28;91563;-85
2021/08/29 00:59:47;;;;;;;4.90;3.15;;;23.80;62.90;;;;;;4982002;28;89270;-85
2021/08/29 01:02:15;;;;;;;3.70;2.70;;;23.80;62.90;;;;;;4967068;28;88356;-87
2021/08/29 01:04:50;;;;;;;3.97;2.60;;;23.80;63.00;;;;;;4966644;28;90799;-85
2021/08/29 01:07:22;;;;;;;4.47;3.20;;;23.80;63.00;;;;;;4966946;28;90206;-85
2021/08/29 01:09:53;;;;;;;4.03;3.05;;;23.80;63.00;;;;;;4951115;28;87655;-85
2021/08/29 01:12:22;;;;;;;4.65;2.95;;;23.80;63.00;;;;;;4966889;28;87794;-84
2021/08/29 01:14:51;;;;;;;3.90;2.88;;;23.80;63.00;;;;;;4965833;28;89457;-87
2021/08/29 01:17:23;;;;;;;4.75;3.05;;;23.80;63.00;;;;;;4967613;28;89829;-85
2021/08/29 01:20:13;;;;;;;3.42;2.88;;;23.80;63.00;;;;;;4966189;28;87180;-86
2021/08/29 01:22:40;;;;;;;4.80;2.65;;;23.80;63.00;;;;;;4966283;28;89637;-88
2021/08/29 01:25:09;;;;;;;3.75;2.55;;;23.80;63.00;;;;;;4951896;28;90648;-85
2021/08/29 01:27:48;;;;;;;5.45;2.67;;;23.80;63.00;;;;;;4966677;28;88912;-85
2021/08/29 01:30:14;;;;;;;4.88;2.72;;;23.80;63.00;;;;;;4984919;28;87654;-85
2021/08/29 01:32:41;;;;;;;4.03;2.65;;;23.70;63.00;;;;;;4952467;28;88393;-85
2021/08/29 01:35:08;;;;;;;4.35;2.67;;;23.70;63.00;;;;;;4967545;28;90008;-87
2021/08/29 01:37:34;;;;;;;3.55;2.80;;;23.70;63.00;;;;;;4980853;28;91812;-87
2021/08/29 01:40:01;;;;;;;4.45;3.13;;;23.70;63.00;;;;;;4966461;28;88149;-85
2021/08/29 01:42:28;;;;;;;4.13;3.05;;;23.70;63.00;;;;;;4968613;28;86907;-85
2021/08/29 01:44:54;;;;;;;4.70;2.85;;;23.70;63.00;;;;;;4984538;28;91283;-85
2021/08/29 01:47:20;;;;;;;5.63;2.45;;;23.70;63.00;;;;;;4962498;28;88093;-84
2021/08/29 01:49:46;;;;;;;4.38;2.60;;;23.70;63.00;;;;;;4965341;28;88563;-85
2021/08/29 01:52:16;;;;;;;4.45;2.78;;;23.70;63.00;;;;;;4961741;28;87788;-85
2021/08/29 01:54:41;;;;;;;4.75;2.85;;;23.70;63.10;;;;;;4980201;28;90448;-85
2021/08/29 01:57:13;;;;;;;5.18;3.03;;;23.70;63.10;;;;;;4964325;28;88504;-85
2021/08/29 01:59:43;;;;;;;4.25;2.90;;;23.70;63.10;;;;;;4965153;28;87158;-85
2021/08/29 02:02:10;;;;;;;4.20;2.85;;;23.70;63.70;;;;;;4963322;28;87379;-85
2021/08/29 02:04:36;;;;;;;3.45;2.78;;;23.70;63.10;;;;;;4964389;28;89148;-85
2021/08/29 02:07:24;;;;;;;3.38;2.47;;;23.70;63.10;;;;;;4960581;28;89367;-85
2021/08/29 02:09:57;;;;;;;3.33;2.53;;;23.60;63.10;;;;;;4965006;28;87615;-85
2021/08/29 02:12:23;;;;;;;2.85;2.33;;;23.70;63.20;;;;;;4962988;28;87773;-85
2021/08/29 02:14:57;;;;;;;3.33;2.47;;;23.70;63.20;;;;;;4943502;28;88929;-85
2021/08/29 02:17:25;;;;;;;3.13;2.50;;;23.70;63.10;;;;;;4951705;28;88994;-85
2021/08/29 02:19:53;;;;;;;3.05;2.58;;;23.70;63.20;;;;;;4969695;28;88062;-85
2021/08/29 02:22:19;;;;;;;3.60;2.75;;;23.70;63.20;;;;;;4968357;28;87774;-85
2021/08/29 02:24:45;;;;;;;3.25;2.50;;;23.70;63.20;;;;;;4964911;28;89725;-85
2021/08/29 02:27:11;;;;;;;3.30;2.70;;;23.70;63.80;;;;;;4963525;28;89323;-84
2021/08/29 02:29:38;;;;;;;2.88;2.20;;;23.60;63.10;;;;;;4968161;28;87801;-85
2021/08/29 02:32:05;;;;;;;3.42;2.80;;;23.70;63.20;;;;;;4944519;28;86856;-85
2021/08/29 02:34:31;;;;;;;3.60;2.33;;;23.60;63.20;;;;;;4963616;28;90267;-84
2021/08/29 02:36:57;;;;;;;3.10;2.60;;;23.60;63.20;;;;;;4969944;28;88456;-85
2021/08/29 02:39:25;;;;;;;3.55;2.90;;;23.60;63.20;;;;;;4965564;28;88513;-85
2021/08/29 02:41:51;;;;;;;4.20;2.92;;;23.60;63.20;;;;;;4966314;28;87837;-85
2021/08/29 02:44:19;;;;;;;3.05;2.47;;;23.60;63.20;;;;;;4968328;28;87020;-85
2021/08/29 02:46:45;;;;;;;3.28;2.40;;;23.60;63.20;;;;;;4969198;28;87671;-85
2021/08/29 02:49:12;;;;;;;3.47;2.38;;;23.60;63.20;;;;;;4969422;28;87450;-85
2021/08/29 02:51:38;;;;;;;3.50;2.40;;;23.60;63.20;;;;;;4967023;28;87559;-85
2021/08/29 02:54:04;;;;;;;3.20;2.47;;;23.60;63.20;;;;;;4969711;28;89347;-84
2021/08/29 02:56:33;;;;;;;3.63;2.50;;;23.60;63.20;;;;;;4969523;28;87733;-86
2021/08/29 02:58:58;;;;;;;3.25;2.42;;;23.60;63.20;;;;;;4966462;28;87584;-84
2021/08/29 03:01:24;;;;;;;3.35;2.50;;;23.60;63.30;;;;;;4967538;28;87225;-86
2021/08/29 03:03:50;;;;;;;3.17;2.45;;;23.60;63.30;;;;;;4967931;28;88885;-84
2021/08/29 03:06:15;;;;;;;3.25;2.60;;;23.60;63.30;;;;;;4964975;28;89219;-84
2021/08/29 03:08:41;;;;;;;2.85;2.33;;;23.60;63.30;;;;;;4968366;28;87149;-85
2021/08/29 03:11:07;;;;;;;2.65;2.30;;;23.60;63.20;;;;;;4967956;28;87413;-85
2021/08/29 03:13:34;;;;;;;3.28;2.35;;;23.60;63.30;;;;;;4968353;28;87103;-85
2021/08/29 03:16:00;;;;;;;3.17;2.60;;;23.60;63.30;;;;;;4969445;28;88299;-85
2021/08/29 03:18:27;;;;;;;4.28;2.65;;;23.60;63.30;;;;;;4968073;28;87687;-86
2021/08/29 03:20:53;;;;;;;4.13;2.60;;;23.60;63.30;;;;;;4950839;28;87932;-86
2021/08/29 03:23:19;;;;;;;3.05;2.53;;;23.60;63.30;;;;;;4966285;28;90284;-85
2021/08/29 03:25:45;;;;;;;3.65;2.55;;;23.60;63.30;;;;;;4965549;28;89172;-87
2021/08/29 03:28:11;;;;;;;3.05;2.30;;;23.50;63.20;;;;;;4965198;28;89116;-85
2021/08/29 03:30:38;;;;;;;3.08;2.50;;;23.50;63.20;;;;;;4966075;28;87770;-84
2021/08/29 03:33:04;;;;;;;4.80;2.78;;;23.50;63.20;;;;;;4982746;28;91043;-86
2021/08/29 03:35:31;;;;;;;3.00;2.25;;;23.60;63.30;;;;;;4964810;28;89585;-85
2021/08/29 03:37:57;;;;;;;3.47;2.67;;;23.50;63.20;;;;;;4966848;28;87768;-83
2021/08/29 03:40:24;;;;;;;3.78;2.70;;;23.50;63.20;;;;;;4967227;28;89629;-86
2021/08/29 03:42:51;;;;;;;3.67;2.38;;;23.50;63.30;;;;;;4964915;28;90453;-85
2021/08/29 03:45:16;;;;;;;3.90;2.38;;;23.50;63.30;;;;;;4967526;28;87906;-85
2021/08/29 03:47:42;;;;;;;3.17;2.47;;;23.50;63.30;;;;;;4962184;28;87960;-85
2021/08/29 03:50:09;;;;;;;2.85;2.25;;;23.50;63.30;;;;;;4967482;28;87490;-86
2021/08/29 03:52:35;;;;;;;3.42;2.40;;;23.50;63.30;;;;;;4948635;28;90379;-85
2021/08/29 03:55:01;;;;;;;2.80;2.22;;;23.50;63.30;;;;;;4963871;28;90353;-88
2021/08/29 03:57:27;;;;;;;2.78;2.17;;;23.50;63.30;;;;;;4965013;28;87554;-85
2021/08/29 03:59:53;;;;;;;3.38;2.72;;;23.50;63.30;;;;;;4962434;28;88129;-87
2021/08/29 04:02:18;;;;;;;3.55;2.10;;;23.50;63.30;;;;;;4964529;28;88994;-84
2021/08/29 04:04:44;;;;;;;2.97;2.47;;;23.50;63.30;;;;;;4965348;28;89563;-85
2021/08/29 04:07:10;;;;;;;3.67;2.45;;;23.50;63.30;;;;;;4963315;28;87236;-87
2021/08/29 04:09:36;;;;;;;2.92;2.40;;;23.50;63.30;;;;;;4963298;28;89409;-86
2021/08/29 04:12:02;;;;;;;3.72;2.60;;;23.50;63.30;;;;;;4963268;28;89345;-84
2021/08/29 04:14:29;;;;;;;2.53;2.08;;;23.50;63.30;;;;;;4945810;28;88405;-85
2021/08/29 04:16:57;;;;;;;3.55;2.50;;;23.50;63.30;;;;;;4963674;28;88371;-88
2021/08/29 04:19:24;;;;;;;2.55;2.20;;;23.50;63.30;;;;;;4964099;28;88950;-87
2021/08/29 04:21:50;;;;;;;3.80;2.30;;;23.50;63.30;;;;;;4962525;28;90397;-87
2021/08/29 04:24:16;;;;;;;3.13;2.13;;;23.50;63.30;;;;;;4964598;28;89801;-88
2021/08/29 04:26:42;;;;;;;2.08;1.88;;;23.50;63.40;;;;;;4965636;28;87512;-87
2021/08/29 04:29:08;;;;;;;3.70;2.75;;;23.50;63.40;;;;;;4981227;28;88388;-87
2021/08/29 04:31:34;;;;;;;3.00;2.30;;;23.50;63.40;;;;;;4963612;28;88888;-87
2021/08/29 04:34:05;;;;;;;3.22;2.45;;;23.50;63.40;;;;;;4962678;28;88008;-86
2021/08/29 04:36:32;;;;;;;2.20;1.95;;;23.50;63.40;;;;;;4964601;28;87553;-88
2021/08/29 04:38:59;;;;;;;2.88;2.50;;;23.50;63.40;;;;;;4979948;28;87750;-87
2021/08/29 04:41:25;;;;;;;2.72;2.00;;;23.50;63.40;;;;;;4944705;28;90138;-87
2021/08/29 04:43:51;;;;;;;2.67;2.22;;;23.50;63.40;;;;;;4964636;28;88830;-88
2021/08/29 04:46:16;;;;;;;3.50;2.40;;;23.50;63.40;;;;;;4964562;28;88066;-87
2021/08/29 04:48:42;;;;;;;3.45;2.38;;;23.50;63.40;;;;;;4980229;28;88015;-87
2021/08/29 04:51:07;;;;;;;3.58;2.53;;;23.50;63.40;;;;;;4963398;28;88124;-88
2021/08/29 04:53:33;;;;;;;3.53;2.35;;;23.50;63.40;;;;;;4963909;28;89048;-87
2021/08/29 04:55:59;;;;;;;2.92;2.30;;;23.50;63.40;;;;;;4946775;28;87823;-88
2021/08/29 04:58:25;;;;;;;2.78;2.25;;;23.40;63.30;;;;;;4962332;28;87724;-87
2021/08/29 05:00:50;;;;;;;3.08;2.20;;;23.40;63.30;;;;;;4964456;28;90729;-85
2021/08/29 05:03:16;;;;;;;2.28;1.95;;;23.50;63.40;;;;;;4966849;28;88595;-88
2021/08/29 05:05:41;;;;;;;2.50;2.20;;;23.40;63.40;;;;;;4965683;28;88779;-88
2021/08/29 05:08:07;;;;;;;2.97;2.20;;;23.40;63.30;;;;;;4947624;28;88508;-88
2021/08/29 05:10:33;;;;;;;3.15;2.30;;;23.50;63.40;;;;;;4963710;28;88108;-87
2021/08/29 05:12:58;;;;;;;2.80;2.17;;;23.40;63.30;;;;;;4964171;28;88803;-87
2021/08/29 05:15:24;;;;;;;3.50;2.28;;;23.40;63.40;;;;;;4963404;28;88091;-87
2021/08/29 05:17:49;;;;;;;3.90;2.40;;;23.40;63.30;;;;;;4947232;28;88984;-87
2021/08/29 05:20:15;;;;;;;2.15;1.95;;;23.50;63.40;;;;;;4961670;28;89251;-87
2021/08/29 05:22:41;;;;;;;3.20;2.17;;;23.40;63.40;;;;;;4964331;28;86904;-87
2021/08/29 05:25:07;;;;;;;2.47;2.13;;;23.40;63.40;;;;;;4963598;28;87377;-88
2021/08/29 05:27:32;;;;;;;2.83;2.10;;;23.40;63.40;;;;;;4967705;28;89061;-87
2021/08/29 05:29:58;;;;;;;2.42;1.88;;;23.40;63.40;;;;;;4967806;28;91216;-87
2021/08/29 05:32:23;;;;;;;2.72;2.08;;;23.40;63.40;;;;;;4966824;28;88389;-87
2021/08/29 05:34:49;;;;;;;3.05;1.90;;;23.40;63.40;;;;;;4967886;28;87142;-86
2021/08/29 05:37:15;;;;;;;2.22;1.90;;;23.40;63.40;;;;;;4967395;28;89137;-87
2021/08/29 05:39:40;;;;;;;3.28;2.05;;;23.40;63.40;;;;;;4964845;28;89379;-88
2021/08/29 05:42:06;;;;;;;2.17;1.83;;;23.40;63.40;;;;;;4981317;28;90270;-87
2021/08/29 05:44:31;;;;;;;2.10;1.75;;;23.40;63.40;;;;;;4965565;28;87230;-87
2021/08/29 05:46:57;;;;;;;3.03;1.92;;;23.40;63.40;;;;;;4967819;28;86954;-88
2021/08/29 05:49:23;;;;;;;2.45;2.20;;;23.40;63.40;;;;;;4964754;28;89202;-87
2021/08/29 05:51:48;;;;;;;3.17;1.88;;;23.40;63.40;;;;;;4966150;28;89848;-87
2021/08/29 05:54:14;;;;;;;2.63;2.05;;;23.40;63.40;;;;;;4966068;28;87984;-88
2021/08/29 05:56:40;;;;;;;2.58;2.05;;;23.40;63.40;;;;;;4964566;28;88155;-87
2021/08/29 05:59:06;;;;;;;2.75;2.13;;;23.40;63.40;;;;;;4964217;28;88757;-87
2021/08/29 06:01:31;;;;;;;3.78;2.30;;;23.40;63.40;;;;;;4964583;28;87991;-88
2021/08/29 06:03:57;;;;;;;2.92;2.25;;;23.40;63.40;;;;;;4965448;28;87432;-87
2021/08/29 06:06:22;;;;;;;3.25;2.20;;;23.40;63.40;;;;;;4964513;28;88401;-86
2021/08/29 06:08:48;;;;;;;2.50;2.17;;;23.40;63.40;;;;;;4966493;28;90255;-85
2021/08/29 06:11:14;;;;;;;2.83;2.10;;;23.40;63.40;;;;;;4963979;28;88734;-88
2021/08/29 06:13:39;;;;;;;2.20;1.90;;;23.40;63.40;;;;;;4965105;28;87210;-87
2021/08/29 06:16:05;;;;;;;3.05;2.00;;;23.40;63.50;;;;;;4946605;28;88569;-87
2021/08/29 06:18:31;;;;;;;2.90;2.30;;;23.40;63.50;;;;;;4965105;28;91607;-88
2021/08/29 06:20:57;;;;;;;2.38;1.88;;;23.40;63.70;;;;;;4967977;28;87808;-86
2021/08/29 06:23:22;;;;;;;3.25;2.10;;;23.40;63.70;;;;;;4968996;28;87852;-87
2021/08/29 06:25:48;;;;;;;4.60;2.35;;;23.40;63.70;;;;;;4968351;28;87387;-86
2021/08/29 06:28:13;;;;;;;3.75;2.08;;;23.40;63.40;;;;;;4967445;28;88089;-86
2021/08/29 06:30:39;;;;;;;4.88;2.20;;;23.40;63.20;;;;;;4964080;28;91035;-87
2021/08/29 06:33:04;;;;;;;3.95;2.13;;;23.40;63.30;;;;;;4964036;28;88051;-87
2021/08/29 06:35:30;;;;;;;3.95;2.22;;;23.40;63.40;;;;;;4965036;28;86857;-87
2021/08/29 06:37:56;;;;;;;7.70;3.25;;;23.40;63.40;;;;;;4965822;28;89929;-87
2021/08/29 06:40:21;;;;;;;8.38;3.78;;;23.40;63.40;;;;;;4947374;28;89168;-87
2021/08/29 06:42:47;;;;;;;13.07;4.15;;;23.40;63.40;;;;;;4963649;28;88679;-86
2021/08/29 06:45:13;;;;;;;24.15;6.25;;;23.40;63.30;;;;;;4965674;28;88038;-86
2021/08/29 06:47:38;;;;;;;19.70;5.53;;;23.40;63.30;;;;;;4966150;28;88206;-87
2021/08/29 06:50:05;;;;;;;21.55;6.22;;;23.40;63.30;;;;;;4965641;28;89013;-86
2021/08/29 06:52:32;;;;;;;16.25;5.28;;;23.40;63.20;;;;;;4964721;28;87602;-87
2021/08/29 06:54:58;;;;;;;19.63;5.40;;;23.40;63.30;;;;;;4979406;28;87708;-87
2021/08/29 06:57:25;;;;;;;20.48;4.75;;;23.40;63.20;;;;;;4965087;28;90126;-86
2021/08/29 06:59:52;;;;;;;16.85;3.92;;;23.40;63.20;;;;;;4962499;28;88947;-87
2021/08/29 07:02:18;;;;;;;13.10;3.92;;;23.40;63.30;;;;;;4966651;28;87950;-87
2021/08/29 07:04:44;;;;;;;12.18;3.92;;;23.40;63.30;;;;;;4967089;28;87824;-86
2021/08/29 07:07:09;;;;;;;9.73;3.45;;;23.40;63.30;;;;;;5083584;23;88519;-13
2021/08/29 07:09:39;;;;;;;7.95;3.72;;;23.40;63.30;;;;;;4962645;28;88844;-12
2021/08/29 07:12:08;;;;;;;7.07;3.45;;;23.40;63.30;;;;;;4962048;28;87920;-12
2021/08/29 07:14:34;;;;;;;12.82;4.30;;;23.40;63.40;;;;;;4962351;28;88325;-13
2021/08/29 07:17:00;;;;;;;12.23;3.97;;;23.40;63.40;;;;;;4961782;28;90651;-13
2021/08/29 07:19:25;;;;;;;38.50;9.02;;;23.40;63.30;;;;;;4959651;28;88262;-13
2021/08/29 07:21:51;;;;;;;38.38;8.10;;;23.40;63.40;;;;;;4959402;28;87516;-13
2021/08/29 07:24:16;;;;;;;50.25;11.23;;;23.40;63.40;;;;;;4960390;28;86905;-12
2021/08/29 07:26:42;;;;;;;49.35;11.15;;;23.40;63.50;;;;;;4960515;28;88228;-14
2021/08/29 07:29:09;;;;;;;44.08;11.23;;;23.40;63.70;;;;;;4964966;28;88056;-13
2021/08/29 07:31:36;;;;;;;59.47;12.43;;;23.40;63.70;;;;;;4955366;28;89217;-12
2021/08/29 07:34:03;;;;;;;44.70;10.25;;;23.40;63.70;;;;;;4957626;28;87463;-12
2021/08/29 07:36:29;;;;;;;51.10;11.70;;;23.50;63.70;;;;;;4956530;28;88318;-12
2021/08/29 07:38:55;;;;;;;40.92;10.95;;;23.50;63.80;;;;;;4960693;28;90887;-13
2021/08/29 07:41:20;;;;;;;56.83;12.05;;;23.50;63.80;;;;;;4962495;28;87603;-13
2021/08/29 07:43:46;;;;;;;60.65;12.95;;;23.50;63.80;;;;;;4960459;28;87988;-12
2021/08/29 07:46:12;;;;;;;47.60;12.20;;;23.50;63.90;;;;;;4941820;28;88488;-13
2021/08/29 07:48:38;;;;;;;47.83;11.68;;;23.50;64.60;;;;;;4927283;28;87846;-12
2021/08/29 07:51:03;;;;;;;49.88;12.73;;;23.50;64.10;;;;;;4955136;28;87223;-13
2021/08/29 07:53:29;;;;;;;47.65;12.90;;;23.50;64.10;;;;;;4959702;28;88221;-15
2021/08/29 07:55:55;;;;;;;49.55;12.43;;;23.40;64.10;;;;;;4958846;28;89083;-13
2021/08/29 07:58:20;;;;;;;52.15;12.25;;;23.40;64.20;;;;;;4961955;28;88397;-13
2021/08/29 08:00:46;;;;;;;37.42;11.10;;;23.40;64.20;;;;;;4958209;28;87884;-12
2021/08/29 08:03:15;;;;;;;44.60;11.30;;;23.40;64.10;;;;;;4959302;28;88127;-14
2021/08/29 08:05:40;;;;;;;43.33;11.43;;;23.50;64.10;;;;;;4957938;28;92383;-13
2021/08/29 08:08:06;;;;;;;50.60;12.38;;;23.40;64.20;;;;;;4962024;28;88038;-13
2021/08/29 08:10:32;;;;;;;45.03;11.50;;;23.40;64.20;;;;;;4962165;28;87861;-13
2021/08/29 08:12:58;;;;;;;36.08;10.32;;;23.40;64.20;;;;;;4958411;28;88246;-13
2021/08/29 08:15:24;;;;;;;43.00;10.80;;;23.40;64.20;;;;;;4963021;28;88014;-13
2021/08/29 08:17:49;;;;;;;34.65;10.13;;;23.50;64.30;;;;;;4959610;28;87932;-12
2021/08/29 08:20:16;;;;;;;44.22;11.45;;;23.40;64.20;;;;;;4957835;28;88489;-13
2021/08/29 08:22:42;;;;;;;39.55;10.25;;;23.40;64.20;;;;;;4961371;28;87190;-13
2021/08/29 08:25:09;;;;;;;36.72;10.52;;;23.40;64.20;;;;;;4960586;28;89092;-13
2021/08/29 08:27:35;;;;;;;32.20;9.48;;;23.40;64.20;;;;;;4963117;28;88039;-15
2021/08/29 08:30:03;;;;;;;32.70;9.95;;;23.40;64.20;;;;;;4960738;28;87989;-13
2021/08/29 08:32:29;;;;;;;28.38;8.55;;;23.40;64.20;;;;;;4957825;28;88295;-13
2021/08/29 08:34:55;;;;;;;28.05;8.30;;;23.40;64.20;;;;;;4960794;28;87879;-14
2021/08/29 08:37:20;;;;;;;23.70;7.22;;;23.40;64.20;;;;;;4962396;28;87809;-13
2021/08/29 08:39:46;;;;;;;34.22;9.88;;;23.40;64.20;;;;;;4961962;28;87364;-13
2021/08/29 08:42:12;;;;;;;31.45;8.95;;;23.50;64.40;;;;;;4959703;28;87961;-13
2021/08/29 08:44:38;;;;;;;29.48;9.23;;;23.40;64.50;;;;;;4958731;28;90336;-13
2021/08/29 08:47:10;;;;;;;26.20;9.30;;;23.50;64.80;;;;;;4957369;28;89989;-12
2021/08/29 08:49:37;;;;;;;30.55;8.35;;;23.50;64.80;;;;;;4962542;28;87187;-13
2021/08/29 08:52:09;;;;;;;28.30;7.82;;;23.50;65.10;;;;;;4963809;28;87669;-12
2021/08/29 08:54:36;;;;;;;19.63;7.45;;;23.50;65.50;;;;;;4963182;28;88185;-14
2021/08/29 08:57:02;;;;;;;21.50;6.97;;;23.50;65.70;;;;;;4958845;28;88878;-14
2021/08/29 08:59:30;;;;;;;23.52;7.07;;;23.50;65.40;;;;;;4959980;28;87180;-13
2021/08/29 09:01:59;;;;;;;16.02;6.45;;;23.50;64.80;;;;;;4961878;28;86951;-13
2021/08/29 09:04:25;;;;;;;16.65;6.22;;;23.50;65.00;;;;;;4962950;28;89889;-12
2021/08/29 09:06:52;;;;;;;24.50;6.65;;;23.50;64.80;;;;;;4963257;28;88421;-13
2021/08/29 09:09:17;;;;;;;21.48;6.57;;;23.50;65.00;;;;;;4964817;28;89027;-13
2021/08/29 09:11:43;;;;;;;23.50;7.22;;;23.50;65.10;;;;;;4964762;28;87676;-13
2021/08/29 09:14:09;;;;;;;15.02;5.80;;;23.50;65.20;;;;;;4960466;28;87704;-13
2021/08/29 09:16:35;;;;;;;20.60;6.68;;;23.50;65.20;;;;;;4965397;28;87714;-13
2021/08/29 09:19:04;;;;;;;27.08;6.85;;;23.50;65.30;;;;;;4969817;28;87850;-13
2021/08/29 09:21:37;;;;;;;23.55;6.22;;;23.50;65.30;;;;;;4962181;28;88029;-12
2021/08/29 09:24:15;;;;;;;20.13;6.55;;;23.50;65.30;;;;;;4962259;28;87832;-13
2021/08/29 09:26:43;;;;;;;23.55;7.28;;;23.50;65.30;;;;;;4963096;28;88188;-12
2021/08/29 09:29:24;;;;;;;16.10;6.20;;;23.50;65.30;;;;;;4963035;28;88037;-12
2021/08/29 09:31:53;;;;;;;19.02;5.82;;;23.50;65.20;;;;;;4963513;28;88747;-13
2021/08/29 09:34:20;;;;;;;16.90;5.82;;;23.50;65.20;;;;;;4961661;28;90232;-13
2021/08/29 09:36:49;;;;;;;14.60;5.55;;;23.50;65.20;;;;;;4962935;28;88870;-13
2021/08/29 09:39:21;;;;;;;14.60;4.25;;;23.50;64.60;;;;;;4961130;28;87607;-13
2021/08/29 09:41:47;;;;;;;17.50;5.35;;;23.40;64.20;;;;;;4960102;28;88274;-12
2021/08/29 09:44:18;;;;;;;14.25;4.88;;;23.40;63.70;;;;;;4961072;28;90202;-12
2021/08/29 09:46:57;;;;;;;18.08;5.82;;;23.40;63.80;;;;;;4962489;28;88109;-13
2021/08/29 09:49:24;;;;;;;22.73;5.45;;;23.40;64.20;;;;;;4963038;28;87953;-12
2021/08/29 09:51:50;;;;;;;23.77;7.03;;;23.40;65.00;;;;;;4963538;28;87188;-13
2021/08/29 09:54:34;;;;;;;44.65;12.70;;;23.40;64.40;;;;;;4964890;28;91619;-12
2021/08/29 09:57:04;;;;;;;23.13;8.02;;;23.40;64.40;;;;;;4963135;28;88518;-13
2021/08/29 09:59:46;;;;;;;28.38;7.88;;;23.40;64.40;;;;;;4962129;28;88576;-13
2021/08/29 10:02:27;;;;;;;36.95;10.68;;;23.50;64.60;;;;;;4962908;28;87528;-13
2021/08/29 10:05:14;;;;;;;48.97;11.20;;;23.50;64.70;;;;;;4963584;28;88248;-12
2021/08/29 10:07:58;;;;;;;42.88;11.38;;;23.50;64.80;;;;;;4958350;28;91234;-12
2021/08/29 10:10:28;;;;;;;36.30;9.88;;;23.50;64.80;;;;;;4966282;28;87921;-14
2021/08/29 10:12:55;;;;;;;43.17;10.20;;;23.50;64.80;;;;;;4964924;28;88113;-13
2021/08/29 10:15:21;;;;;;;25.63;8.90;;;23.50;65.00;;;;;;4960734;28;87564;-13
2021/08/29 10:17:50;;;;;;;34.03;9.55;;;23.50;65.00;;;;;;4966078;28;88538;-12
2021/08/29 10:20:20;;;;;;;32.47;9.82;;;23.50;65.00;;;;;;4961110;28;87633;-13
2021/08/29 10:22:50;;;;;;;32.88;10.30;;;23.50;65.10;;;;;;4960482;28;87794;-13
2021/08/29 10:25:18;;;;;;;36.78;8.77;;;23.50;65.10;;;;;;4963950;28;89330;-12
2021/08/29 10:28:06;;;;;;;29.98;8.65;;;23.50;65.10;;;;;;4962190;28;88268;-13
2021/08/29 10:30:35;;;;;;;28.80;8.43;;;23.50;65.10;;;;;;4974900;28;87270;-14
2021/08/29 10:33:04;;;;;;;30.75;8.57;;;23.50;65.10;;;;;;4963734;28;87653;-13
2021/08/29 10:35:31;;;;;;;27.67;8.13;;;23.50;65.00;;;;;;4962890;28;88196;-13
2021/08/29 10:37:57;;;;;;;30.67;9.48;;;23.60;65.10;;;;;;4959795;28;90517;-13
2021/08/29 10:40:27;;;;;;;32.10;8.32;;;23.50;65.10;;;;;;4962952;28;87066;-13
2021/08/29 10:42:55;;;;;;;26.23;8.10;;;23.50;65.10;;;;;;4963339;28;87196;-12
2021/08/29 10:45:21;;;;;;;30.77;8.75;;;23.50;65.20;;;;;;4961896;28;88389;-13
2021/08/29 10:47:47;;;;;;;30.13;8.02;;;23.50;65.50;;;;;;4954786;28;87925;-13
2021/08/29 10:50:17;;;;;;;25.48;7.80;;;23.50;65.70;;;;;;4951776;28;88088;-13
2021/08/29 10:52:43;;;;;;;26.40;8.13;;;23.50;65.80;;;;;;4951908;28;88722;-13
2021/08/29 10:55:20;;;;;;;26.45;7.78;;;23.50;65.70;;;;;;4963394;28;88305;-13
2021/08/29 10:57:48;;;;;;;28.25;8.15;;;23.60;66.00;;;;;;4971866;28;88571;-13
2021/08/29 11:00:24;;;;;;;23.25;7.25;;;23.50;65.90;;;;;;4971209;28;87109;-13
2021/08/29 11:02:51;;;;;;;21.45;7.85;;;23.50;65.90;;;;;;4971165;28;87832;-13
2021/08/29 11:05:28;;;;;;;28.77;7.20;;;23.50;65.90;;;;;;4972321;28;88199;-14
2021/08/29 11:07:56;;;;;;;23.08;6.97;;;23.50;65.90;;;;;;4956501;28;87670;-13
2021/08/29 11:10:51;;;;;;;23.00;7.43;;;23.50;66.10;;;;;;4951344;28;88493;-13
2021/08/29 11:13:29;;;;;;;28.45;7.18;;;23.50;66.00;;;;;;4946596;28;87614;-13
2021/08/29 11:16:13;;;;;;;28.75;7.28;;;23.60;66.10;;;;;;4951316;28;89629;-13
2021/08/29 11:19:03;;;;;;;24.70;7.20;;;23.50;66.00;;;;;;4951361;28;88400;-13
2021/08/29 11:21:34;;;;;;;26.88;7.63;;;23.60;66.00;;;;;;4951761;28;87554;-14
2021/08/29 11:24:01;;;;;;;23.20;7.43;;;23.60;65.90;;;;;;4951639;28;88456;-13
2021/08/29 11:26:35;;;;;;;17.98;6.75;;;23.60;66.00;;;;;;4951814;28;88558;-13
2021/08/29 11:29:02;;;;;;;19.40;6.93;;;23.60;65.90;;;;;;4951487;28;87834;-12
2021/08/29 11:31:48;;;;;;;21.02;6.35;;;23.50;65.80;;;;;;4950713;28;87263;-14
2021/08/29 11:34:13;;;;;;;25.60;8.02;;;23.50;65.80;;;;;;4951519;28;86961;-13
2021/08/29 11:36:39;;;;;;;26.85;7.75;;;23.50;65.80;;;;;;4950697;28;88327;-15
2021/08/29 11:39:24;;;;;;;16.95;6.38;;;23.60;65.80;;;;;;4950654;28;88993;-12
2021/08/29 11:42:17;;;;;;;21.75;6.45;;;23.50;65.80;;;;;;4951408;28;88694;-14
2021/08/29 11:44:44;;;;;;;18.00;6.05;;;23.50;65.70;;;;;;4951738;28;87971;-13
2021/08/29 11:47:09;;;;;;;23.23;6.60;;;23.50;65.70;;;;;;4952395;28;87897;-14
2021/08/29 11:49:37;;;;;;;20.63;7.00;;;23.50;65.70;;;;;;4951972;28;88046;-14
2021/08/29 11:52:03;;;;;;;17.35;6.95;;;23.50;65.60;;;;;;4952591;28;87852;-15
2021/08/29 11:54:28;;;;;;;22.23;6.88;;;23.50;65.60;;;;;;4951373;28;89661;-15
2021/08/29 11:56:54;;;;;;;19.17;6.55;;;23.50;65.60;;;;;;4949799;28;91259;-14
2021/08/29 11:59:31;;;;;;;19.67;6.25;;;23.50;65.50;;;;;;4951615;28;90332;-14
2021/08/29 12:01:58;;;;;;;21.13;6.95;;;23.50;65.60;;;;;;4951621;28;88127;-14
2021/08/29 12:04:25;;;;;;;30.98;7.13;;;23.50;65.50;;;;;;4951014;28;87852;-13
2021/08/29 12:07:04;;;;;;;17.55;6.35;;;23.50;65.50;;;;;;4950609;28;89094;-13
2021/08/29 12:09:40;;;;;;;18.00;7.00;;;23.50;65.50;;;;;;4950692;28;87895;-13
2021/08/29 12:12:06;;;;;;;17.30;5.75;;;23.50;65.50;;;;;;4951153;28;87868;-13
2021/08/29 12:14:32;;;;;;;20.15;7.13;;;23.50;65.50;;;;;;4950613;28;88621;-13
2021/08/29 12:17:03;;;;;;;20.77;6.90;;;23.50;65.40;;;;;;4950844;28;88068;-14
2021/08/29 12:19:33;;;;;;;15.48;5.55;;;23.50;65.40;;;;;;4952054;28;88400;-15
2021/08/29 12:22:04;;;;;;;18.80;5.82;;;23.50;65.40;;;;;;4951566;28;88455;-15
2021/08/29 13:03:50;;;;;;;16.92;6.20;;;22.60;66.80;;;;;;6215233;22;1331438;-16
2021/08/29 13:06:19;;;;;;;14.35;5.68;;;22.80;67.60;;;;;;6235749;22;85728;-16
2021/08/29 13:08:46;;;;;;;11.70;5.45;;;22.90;67.30;;;;;;6263380;22;85584;-16
2021/08/29 13:11:15;;;;;;;15.98;5.53;;;23.00;67.20;;;;;;6263554;22;89546;-16
2021/08/29 13:13:57;;;;;;;16.23;5.90;;;23.00;66.90;;;;;;6262970;22;86691;-18
2021/08/29 13:16:40;;;;;;;16.98;5.22;;;23.10;66.70;;;;;;6262647;22;85748;-16
2021/08/29 13:19:09;;;;;;;13.93;5.33;;;23.10;66.50;;;;;;6260298;22;86296;-16
2021/08/29 13:21:39;;;;;;;15.50;5.05;;;23.10;66.30;;;;;;6261661;22;87026;-16
2021/08/29 13:24:28;;;;;;;16.05;6.03;;;23.20;66.20;;;;;;6261477;22;86150;-16